Flight Track Log - Related Links

Times and Time Zones

All times are in EDT time to prevent confusion due to time zone crossing. See the FIV521 flight status page for this flight to view local times or setup timezone preferences in your user account.


Time Position Orientation Groundspeed Altitude Reporting Facility
EDT Latitude Longitude Course Direction KTS MPH feet Rate Location/Type
Tue 03:04:34 PM 35.9942 -79.8664 43° Northeast 292 336 10,000  Level Washington Center
Tue 03:05:34 PM 36.0856 -79.8225 21° North 315 362 10,000  Level Washington Center
Tue 03:06:34 PM 36.1689 -79.7628 30° Northeast 333 383 10,000 500 Level Washington Center
Tue 03:07:34 PM 36.2247 -79.6603 56° Northeast 349 402 11,000 1,600 Climbing Washington Center
Tue 03:08:00 PM 36.4340 -79.5540 43° Northeast  Level Estimated
Tue 03:08:34 PM 36.2822 -79.5628 54° Northeast 349 402 13,200  Level Washington Center
Tue 03:09:00 PM 36.5004 -79.4761 43° Northeast  Level Estimated
Tue 03:09:34 PM 36.3356 -79.4647 56° Northeast 344 396 15,900  Level Washington Center
Tue 03:10:34 PM 36.3931 -79.3619 55° Northeast 344 396 17,900 2,100 Climbing Washington Center
Tue 03:11:34 PM 36.4583 -79.2694 49° Northeast 337 388 20,100 2,050 Climbing Washington Center
Tue 03:12:34 PM 36.5297 -79.1875 43° Northeast 363 418 22,000 1,650 Climbing Washington Center
Tue 03:13:34 PM 36.6183 -79.0908 41° Northeast 379 436 23,400 1,000 Climbing Washington Center
Tue 03:14:34 PM 36.6919 -78.9931 47° Northeast 397 457 24,000 1,050 Climbing Washington Center
Tue 03:15:34 PM 36.7811 -78.8672 48° Northeast 426 490 25,500 1,700 Climbing Washington Center
Tue 03:16:34 PM 36.8611 -78.7617 47° Northeast 432 497 27,400 1,900 Climbing Washington Center
Tue 03:17:34 PM 36.9369 -78.6556 48° Northeast 421 484 29,300 1,800 Climbing Washington Center
Tue 03:18:34 PM 37.0058 -78.5619 47° Northeast 415 478 31,000 850 Climbing Washington Center
Tue 03:19:34 PM 37.0881 -78.4481 48° Northeast 415 478 31,000  Level Washington Center
Tue 03:20:34 PM 37.1700 -78.3339 48° Northeast 429 494 31,000  Level Washington Center
Tue 03:21:34 PM 37.2561 -78.2169 47° Northeast 441 507 31,000  Level Washington Center
Tue 03:22:34 PM 37.3442 -78.0892 49° Northeast 448 516 31,000  Level Washington Center
Tue 03:23:34 PM 37.4281 -77.9717 48° Northeast 448 516 31,000  Level Washington Center
Tue 03:24:34 PM 37.5139 -77.8514 48° Northeast 453 521 31,000  Level Washington Center
Tue 03:25:34 PM 37.6094 -77.7519 39° Northeast 448 516 31,000  Level Washington Center
Tue 03:26:34 PM 37.7111 -77.6603 35° Northeast 441 507 31,000  Level Washington Center
Tue 03:27:34 PM 37.8128 -77.5711 35° Northeast 441 507 31,000  Level Washington Center
Tue 03:28:34 PM 37.9144 -77.4764 36° Northeast 441 507 31,000  Level Washington Center
Tue 03:29:34 PM 38.0158 -77.3867 35° Northeast 441 507 31,000  Level Washington Center
Tue 03:30:34 PM 38.1175 -77.2914 36° Northeast 455 524 31,000  Level Washington Center
Tue 03:31:34 PM 38.2103 -77.2064 36° Northeast 449 517 31,000  Level Washington Center
Tue 03:32:34 PM 38.3181 -77.1081 36° Northeast 449 517 31,000 -600 Level Washington Center
Tue 03:33:34 PM 38.4172 -77.0119 37° Northeast 449 517 29,800 -3,500 Descending Washington Center
Tue 03:34:34 PM 38.5161 -76.9211 36° Northeast 443 510 24,000 -2,900 Descending Washington Center
Tue 03:35:34 PM 38.6172 -76.8297 35° Northeast 443 510 24,000 50 Level Washington Center
Tue 03:36:34 PM 38.7036 -76.7275 43° Northeast 433 498 24,100 -250 Climbing Washington Center
Tue 03:37:34 PM 38.7406 -76.5792 72° East 421 484 23,500 -1,400 Descending Washington Center
Tue 03:38:34 PM 38.7686 -76.4356 76° East 403 464 21,300 -2,250 Descending Washington Center
Tue 03:39:34 PM 38.7986 -76.2922 75° East 411 473 19,000 -2,000 Descending Washington Center
Tue 03:40:34 PM 38.8203 -76.1831 76° East 411 473 17,300 -1,950 Descending Washington Center
Tue 03:41:34 PM 38.8519 -76.0314 75° East 398 458 15,100 -1,150 Descending Washington Center
Tue 03:42:34 PM 38.8817 -75.9089 73° East 378 435 15,000 -878 Descending Washington Center
Tue 03:44:18 PM 39.0217 -75.7714 37° Northeast 353 406 12,700 -1,403 Descending FAA TRACON SMA TRACON (SMA)
Tue 03:44:38 PM 39.0514 -75.7589 18° North 351 404 12,100 -1,800 Descending FAA TRACON SMA TRACON (SMA)
Tue 03:44:58 PM 39.0803 -75.7472 17° North 348 400 11,500 -2,100 Descending FAA TRACON SMA TRACON (SMA)
Tue 03:45:18 PM 39.1147 -75.7314 20° North 344 396 10,700 -1,902 Descending FAA TRACON SMA TRACON (SMA)
Tue 03:45:39 PM 39.1422 -75.7186 20° North 343 395 10,200 -900 Descending FAA TRACON SMA TRACON (SMA)
Tue 03:45:58 PM 39.1700 -75.7058 20° North 343 395 10,100 -308 Descending FAA TRACON SMA TRACON (SMA)
Tue 03:46:18 PM 39.2042 -75.6867 23° Northeast 366 421 10,000 -146 Descending FAA TRACON SMA TRACON (SMA)
Tue 03:46:39 PM 39.2292 -75.6636 36° Northeast 360 414 10,000  Level FAA TRACON SMA TRACON (SMA)
Tue 03:46:58 PM 39.2528 -75.6392 39° Northeast 354 407 10,000  Level FAA TRACON SMA TRACON (SMA)
Tue 03:47:18 PM 39.2822 -75.6083 39° Northeast 354 407 10,000  Level FAA TRACON SMA TRACON (SMA)
Tue 03:47:39 PM 39.3031 -75.5833 43° Northeast 352 405 10,000 -450 Level FAA TRACON SMA TRACON (SMA)
Tue 03:47:58 PM 39.3261 -75.5628 35° Northeast 307 353 9,700 -1,538 Descending FAA TRACON SMA TRACON (SMA)
Tue 03:48:18 PM 39.3519 -75.5361 39° Northeast 306 352 9,000 -2,100 Descending FAA TRACON SMA TRACON (SMA)
Tue 03:48:38 PM 39.3722 -75.5161 37° Northeast 306 352 8,300 -1,950 Descending FAA TRACON SMA TRACON (SMA)
Tue 03:48:58 PM 39.3925 -75.4947 39° Northeast 302 348 7,700 -1,950 Descending FAA TRACON SMA TRACON (SMA)
Tue 03:49:18 PM 39.4164 -75.4694 39° Northeast 298 343 7,000 -1,902 Descending FAA TRACON SMA TRACON (SMA)
Tue 03:49:39 PM 39.4367 -75.4494 37° Northeast 298 343 6,400 -1,950 Descending FAA TRACON SMA TRACON (SMA)
Tue 03:49:58 PM 39.4583 -75.4297 35° Northeast 299 344 5,700 -2,308 Descending FAA TRACON SMA TRACON (SMA)
Tue 03:50:18 PM 39.4842 -75.4058 36° Northeast 298 343 4,900 -2,100 Descending FAA TRACON SMA TRACON (SMA)
Tue 03:50:38 PM 39.5053 -75.3872 34° Northeast 297 342 4,300 -1,200 Descending FAA TRACON SMA TRACON (SMA)
Tue 03:50:58 PM 39.5261 -75.3675 36° Northeast 293 337 4,100 -439 Descending FAA TRACON SMA TRACON (SMA)
Tue 03:51:19 PM 39.5508 -75.3478 32° Northeast 289 333 4,000  Descending FAA TRACON SMA TRACON (SMA)
Tue 03:51:39 PM 39.5708 -75.3289 36° Northeast 287 330 4,100  Climbing FAA TRACON SMA TRACON (SMA)
Tue 03:51:58 PM 39.5911 -75.3106 35° Northeast 289 333 4,000 -154 Descending FAA TRACON SMA TRACON (SMA)
Tue 03:52:18 PM 39.6169 -75.2869 35° Northeast 293 337 4,000  Level FAA TRACON SMA TRACON (SMA)
Tue 03:52:39 PM 39.6375 -75.2681 35° Northeast 294 338 4,000  Level FAA TRACON SMA TRACON (SMA)
Tue 03:52:58 PM 39.6564 -75.2503 36° Northeast 294 338 4,000  Level FAA TRACON SMA TRACON (SMA)
Tue 03:53:19 PM 39.6833 -75.2247 36° Northeast 295 339 4,000  Level FAA TRACON SMA TRACON (SMA)
Tue 03:53:39 PM 39.7036 -75.2053 36° Northeast 296 341 4,000  Level FAA TRACON SMA TRACON (SMA)
Tue 03:53:58 PM 39.7236 -75.1861 36° Northeast 294 338 4,000  Level FAA TRACON SMA TRACON (SMA)
Tue 03:54:18 PM 39.7456 -75.1658 35° Northeast 293 337 4,000  Level FAA TRACON SMA TRACON (SMA)
Tue 03:54:38 PM 39.7678 -75.1431 38° Northeast 292 336 4,000  Level FAA TRACON SMA TRACON (SMA)
Tue 03:54:58 PM 39.7858 -75.1275 34° Northeast 233 268 4,000 -150 Level FAA TRACON SMA TRACON (SMA)
Tue 03:55:18 PM 39.8031 -75.1108 37° Northeast 212 244 3,900 -750 Descending FAA TRACON SMA TRACON (SMA)
Tue 03:55:38 PM 39.8194 -75.0953 36° Northeast 215 247 3,500 -1,200 Descending FAA TRACON SMA TRACON (SMA)
Tue 03:55:58 PM 39.8372 -75.0794 34° Northeast 211 243 3,100 -585 Descending FAA TRACON SMA TRACON (SMA)
Tue 03:56:19 PM 39.8556 -75.0747 11° North 221 254 3,100 -300 Level FAA TRACON SMA TRACON (SMA)
Tue 03:56:38 PM 39.8725 -75.0714 North 199 229 2,900 -1,077 Descending FAA TRACON SMA TRACON (SMA)
Tue 03:56:58 PM 39.8936 -75.0722 358° North 188 216 2,400 -885 Descending FAA TRACON SMA TRACON (SMA)
Tue 03:57:39 PM 39.9022 -75.1019 291° West 152 175 2,000 -590 Descending FAA TRACON SMA TRACON (SMA)
Tue 03:57:59 PM 39.9011 -75.1217 266° West 132 152 1,800 -600 Descending FAA TRACON SMA TRACON (SMA)
Tue 03:58:19 PM 39.8989 -75.1347 257° West 123 142 1,600 -600 Descending FAA TRACON SMA TRACON (SMA)
Tue 03:58:39 PM 39.8964 -75.1467 255° West 119 137 1,400 -750 Descending FAA TRACON SMA TRACON (SMA)
Tue 03:58:59 PM 39.8925 -75.1625 252° West 116 133 1,100 -750 Descending FAA TRACON SMA TRACON (SMA)
Tue 03:59:19 PM 39.8897 -75.1744 253° West 114 131 900 -750 Descending FAA TRACON SMA TRACON (SMA)
Tue 03:59:39 PM 39.8872 -75.1861 254° West 111 128 600 -900 Descending FAA TRACON SMA TRACON (SMA)
Tue 03:59:59 PM 39.8839 -75.2022 255° West 125 144 300 -600 Descending FAA TRACON SMA TRACON (SMA)
Tue 04:00:19 PM 39.8828 -75.2083 257° West 115 132 200 -150 Descending FAA TRACON SMA TRACON (SMA)
Tue 04:00:39 PM 39.8828 -75.2083 229° Southwest 115 132 200  Level FAA TRACON SMA TRACON (SMA)
Tue 04:02:00 PM 39.8667 -75.2333 270° West  Level FlightAware Approximate

Login

Don't have an account? Register now (free) for customized features, flight alerts, and more!